sensor_id;sensor_type;location;lat;lon;timestamp;temperature;humidity
20422;DHT22;10370;53.102;18.034;2023-09-19T00:03:00;19.50;99.90
20422;DHT22;10370;53.102;18.034;2023-09-19T00:08:23;19.50;99.90
20422;DHT22;10370;53.102;18.034;2023-09-19T00:13:48;19.60;99.90
20422;DHT22;10370;53.102;18.034;2023-09-19T00:19:12;19.50;99.90
20422;DHT22;10370;53.102;18.034;2023-09-19T00:24:36;19.50;99.90
20422;DHT22;10370;53.102;18.034;2023-09-19T00:29:59;19.70;99.90
20422;DHT22;10370;53.102;18.034;2023-09-19T00:35:23;20.00;99.90
20422;DHT22;10370;53.102;18.034;2023-09-19T00:40:49;20.20;99.90
20422;DHT22;10370;53.102;18.034;2023-09-19T00:46:17;20.20;99.90
20422;DHT22;10370;53.102;18.034;2023-09-19T00:51:39;20.10;99.90
20422;DHT22;10370;53.102;18.034;2023-09-19T00:57:07;20.10;99.90
20422;DHT22;10370;53.102;18.034;2023-09-19T01:02:31;19.90;99.90
20422;DHT22;10370;53.102;18.034;2023-09-19T01:07:54;19.90;99.90
20422;DHT22;10370;53.102;18.034;2023-09-19T01:13:43;19.80;99.90
20422;DHT22;10370;53.102;18.034;2023-09-19T01:30:52;19.60;99.90
20422;DHT22;10370;53.102;18.034;2023-09-19T01:36:20;19.60;99.90
20422;DHT22;10370;53.102;18.034;2023-09-19T01:41:51;19.60;99.90
20422;DHT22;10370;53.102;18.034;2023-09-19T01:47:24;19.60;99.90
20422;DHT22;10370;53.102;18.034;2023-09-19T01:52:57;19.40;99.90
20422;DHT22;10370;53.102;18.034;2023-09-19T01:58:46;19.40;99.90
20422;DHT22;10370;53.102;18.034;2023-09-19T02:04:10;19.30;99.90
20422;DHT22;10370;53.102;18.034;2023-09-19T02:09:33;19.10;99.90
20422;DHT22;10370;53.102;18.034;2023-09-19T02:14:57;19.00;99.90
20422;DHT22;10370;53.102;18.034;2023-09-19T02:20:20;18.90;99.90
20422;DHT22;10370;53.102;18.034;2023-09-19T02:25:51;18.80;99.90
20422;DHT22;10370;53.102;18.034;2023-09-19T02:31:13;18.80;99.90
20422;DHT22;10370;53.102;18.034;2023-09-19T02:36:36;18.70;99.90
20422;DHT22;10370;53.102;18.034;2023-09-19T02:41:59;18.70;99.90
20422;DHT22;10370;53.102;18.034;2023-09-19T02:47:24;18.70;99.90
20422;DHT22;10370;53.102;18.034;2023-09-19T02:52:58;18.80;99.90
20422;DHT22;10370;53.102;18.034;2023-09-19T02:58:21;18.80;99.90
20422;DHT22;10370;53.102;18.034;2023-09-19T03:03:46;18.80;99.90
20422;DHT22;10370;53.102;18.034;2023-09-19T03:09:09;18.60;99.90
20422;DHT22;10370;53.102;18.034;2023-09-19T03:14:33;18.50;99.90
20422;DHT22;10370;53.102;18.034;2023-09-19T03:19:57;18.50;99.90
20422;DHT22;10370;53.102;18.034;2023-09-19T03:25:20;18.50;99.90
20422;DHT22;10370;53.102;18.034;2023-09-19T03:30:45;18.60;99.90
20422;DHT22;10370;53.102;18.034;2023-09-19T03:36:07;18.50;99.90
20422;DHT22;10370;53.102;18.034;2023-09-19T03:41:31;18.50;99.90
20422;DHT22;10370;53.102;18.034;2023-09-19T03:46:55;18.50;99.90
20422;DHT22;10370;53.102;18.034;2023-09-19T03:52:18;18.50;99.90
20422;DHT22;10370;53.102;18.034;2023-09-19T03:57:41;18.50;99.90
20422;DHT22;10370;53.102;18.034;2023-09-19T04:03:04;18.50;99.90
20422;DHT22;10370;53.102;18.034;2023-09-19T04:08:28;18.40;99.90
20422;DHT22;10370;53.102;18.034;2023-09-19T04:13:51;18.30;99.90
20422;DHT22;10370;53.102;18.034;2023-09-19T04:19:14;18.20;99.90
20422;DHT22;10370;53.102;18.034;2023-09-19T04:24:37;18.10;99.90
20422;DHT22;10370;53.102;18.034;2023-09-19T04:30:00;18.10;99.90
20422;DHT22;10370;53.102;18.034;2023-09-19T04:35:32;18.00;99.90
20422;DHT22;10370;53.102;18.034;2023-09-19T04:40:57;18.00;99.90
20422;DHT22;10370;53.102;18.034;2023-09-19T04:46:21;17.90;99.90
20422;DHT22;10370;53.102;18.034;2023-09-19T04:51:43;17.80;99.90
20422;DHT22;10370;53.102;18.034;2023-09-19T04:57:09;17.80;99.90
20422;DHT22;10370;53.102;18.034;2023-09-19T05:02:31;17.90;99.90
20422;DHT22;10370;53.102;18.034;2023-09-19T05:07:54;17.90;99.90
20422;DHT22;10370;53.102;18.034;2023-09-19T05:13:18;17.90;99.90
20422;DHT22;10370;53.102;18.034;2023-09-19T05:18:40;17.80;99.90
20422;DHT22;10370;53.102;18.034;2023-09-19T05:24:03;17.70;99.90
20422;DHT22;10370;53.102;18.034;2023-09-19T05:29:26;17.80;99.90
20422;DHT22;10370;53.102;18.034;2023-09-19T05:34:48;17.80;99.90
20422;DHT22;10370;53.102;18.034;2023-09-19T05:40:12;18.00;99.90
20422;DHT22;10370;53.102;18.034;2023-09-19T05:45:34;18.10;99.90
20422;DHT22;10370;53.102;18.034;2023-09-19T05:50:58;18.20;99.90
20422;DHT22;10370;53.102;18.034;2023-09-19T05:56:21;18.20;99.90
20422;DHT22;10370;53.102;18.034;2023-09-19T06:01:44;18.20;99.90
20422;DHT22;10370;53.102;18.034;2023-09-19T06:07:08;18.10;99.90
20422;DHT22;10370;53.102;18.034;2023-09-19T06:12:31;18.10;99.90
20422;DHT22;10370;53.102;18.034;2023-09-19T06:17:56;18.20;99.90
20422;DHT22;10370;53.102;18.034;2023-09-19T06:23:20;18.20;99.90
20422;DHT22;10370;53.102;18.034;2023-09-19T06:28:43;18.10;99.90
20422;DHT22;10370;53.102;18.034;2023-09-19T06:34:06;18.20;99.90
20422;DHT22;10370;53.102;18.034;2023-09-19T06:39:29;18.10;99.90
20422;DHT22;10370;53.102;18.034;2023-09-19T06:44:53;18.10;99.90
20422;DHT22;10370;53.102;18.034;2023-09-19T06:50:16;18.10;99.90
20422;DHT22;10370;53.102;18.034;2023-09-19T06:55:41;18.20;99.90
20422;DHT22;10370;53.102;18.034;2023-09-19T07:01:06;18.10;99.90
20422;DHT22;10370;53.102;18.034;2023-09-19T07:06:28;18.20;99.90
20422;DHT22;10370;53.102;18.034;2023-09-19T07:11:51;18.20;99.90
20422;DHT22;10370;53.102;18.034;2023-09-19T07:17:14;18.20;99.90
20422;DHT22;10370;53.102;18.034;2023-09-19T07:22:40;18.40;99.90
20422;DHT22;10370;53.102;18.034;2023-09-19T07:28:02;18.60;99.90
20422;DHT22;10370;53.102;18.034;2023-09-19T07:33:25;18.50;99.90
20422;DHT22;10370;53.102;18.034;2023-09-19T07:38:49;18.70;99.90
20422;DHT22;10370;53.102;18.034;2023-09-19T07:44:11;18.80;99.90
20422;DHT22;10370;53.102;18.034;2023-09-19T07:49:34;18.90;99.90
20422;DHT22;10370;53.102;18.034;2023-09-19T07:54:56;18.80;99.90
20422;DHT22;10370;53.102;18.034;2023-09-19T08:00:20;18.70;99.90
20422;DHT22;10370;53.102;18.034;2023-09-19T08:05:44;18.70;99.90
20422;DHT22;10370;53.102;18.034;2023-09-19T08:11:07;18.70;99.90
20422;DHT22;10370;53.102;18.034;2023-09-19T08:16:34;19.00;99.90
20422;DHT22;10370;53.102;18.034;2023-09-19T08:22:00;19.30;99.90
20422;DHT22;10370;53.102;18.034;2023-09-19T08:27:24;19.20;99.90
20422;DHT22;10370;53.102;18.034;2023-09-19T08:32:58;19.00;99.90
20422;DHT22;10370;53.102;18.034;2023-09-19T08:38:23;19.10;99.90
20422;DHT22;10370;53.102;18.034;2023-09-19T08:43:46;19.30;99.90
20422;DHT22;10370;53.102;18.034;2023-09-19T08:49:25;19.50;99.90
20422;DHT22;10370;53.102;18.034;2023-09-19T08:54:57;19.70;99.90
20422;DHT22;10370;53.102;18.034;2023-09-19T09:00:22;19.90;99.90
20422;DHT22;10370;53.102;18.034;2023-09-19T09:05:45;19.90;99.90
20422;DHT22;10370;53.102;18.034;2023-09-19T09:11:10;20.30;99.90
20422;DHT22;10370;53.102;18.034;2023-09-19T09:16:36;20.30;99.90
20422;DHT22;10370;53.102;18.034;2023-09-19T09:22:11;20.20;99.90
20422;DHT22;10370;53.102;18.034;2023-09-19T09:27:34;20.20;99.90
20422;DHT22;10370;53.102;18.034;2023-09-19T09:33:11;20.30;99.90
20422;DHT22;10370;53.102;18.034;2023-09-19T09:38:47;20.30;99.90
20422;DHT22;10370;53.102;18.034;2023-09-19T09:44:18;20.40;99.90
20422;DHT22;10370;53.102;18.034;2023-09-19T09:49:47;20.30;99.90
20422;DHT22;10370;53.102;18.034;2023-09-19T09:55:17;20.40;99.90
20422;DHT22;10370;53.102;18.034;2023-09-19T10:00:56;20.60;99.90
20422;DHT22;10370;53.102;18.034;2023-09-19T10:06:19;20.50;99.90
20422;DHT22;10370;53.102;18.034;2023-09-19T10:11:47;20.40;99.90
20422;DHT22;10370;53.102;18.034;2023-09-19T10:17:20;20.30;99.90
20422;DHT22;10370;53.102;18.034;2023-09-19T10:22:46;20.30;99.90
20422;DHT22;10370;53.102;18.034;2023-09-19T10:28:21;20.40;99.90
20422;DHT22;10370;53.102;18.034;2023-09-19T10:33:48;20.60;99.90
20422;DHT22;10370;53.102;18.034;2023-09-19T10:39:14;20.70;99.90
20422;DHT22;10370;53.102;18.034;2023-09-19T10:44:41;20.80;99.90
20422;DHT22;10370;53.102;18.034;2023-09-19T10:50:06;20.90;99.90
20422;DHT22;10370;53.102;18.034;2023-09-19T10:55:35;21.20;99.90
20422;DHT22;10370;53.102;18.034;2023-09-19T11:00:58;21.10;99.90
20422;DHT22;10370;53.102;18.034;2023-09-19T11:06:40;21.00;99.90
20422;DHT22;10370;53.102;18.034;2023-09-19T11:12:04;20.90;99.90
20422;DHT22;10370;53.102;18.034;2023-09-19T11:17:31;20.90;99.90
20422;DHT22;10370;53.102;18.034;2023-09-19T11:23:19;21.10;99.90
20422;DHT22;10370;53.102;18.034;2023-09-19T11:28:45;21.20;99.90
20422;DHT22;10370;53.102;18.034;2023-09-19T11:40:07;21.20;99.90
20422;DHT22;10370;53.102;18.034;2023-09-19T11:51:12;21.10;99.90
20422;DHT22;10370;53.102;18.034;2023-09-19T11:56:41;21.10;99.90
20422;DHT22;10370;53.102;18.034;2023-09-19T12:02:06;21.20;99.90
20422;DHT22;10370;53.102;18.034;2023-09-19T12:07:42;21.10;99.90
20422;DHT22;10370;53.102;18.034;2023-09-19T12:13:08;21.10;99.90
20422;DHT22;10370;53.102;18.034;2023-09-19T12:18:32;21.30;99.90
20422;DHT22;10370;53.102;18.034;2023-09-19T12:29:22;21.80;99.90
20422;DHT22;10370;53.102;18.034;2023-09-19T12:34:51;21.60;99.90
20422;DHT22;10370;53.102;18.034;2023-09-19T12:40:15;21.30;99.90
20422;DHT22;10370;53.102;18.034;2023-09-19T12:45:42;21.40;99.90
20422;DHT22;10370;53.102;18.034;2023-09-19T12:51:08;21.20;99.90
20422;DHT22;10370;53.102;18.034;2023-09-19T12:56:46;21.00;99.90
20422;DHT22;10370;53.102;18.034;2023-09-19T13:02:11;21.10;99.90
20422;DHT22;10370;53.102;18.034;2023-09-19T13:07:45;21.10;99.90
20422;DHT22;10370;53.102;18.034;2023-09-19T13:13:24;21.20;99.90
20422;DHT22;10370;53.102;18.034;2023-09-19T13:18:51;21.20;99.90
20422;DHT22;10370;53.102;18.034;2023-09-19T13:24:24;21.20;99.90
20422;DHT22;10370;53.102;18.034;2023-09-19T13:29:51;20.90;99.90
20422;DHT22;10370;53.102;18.034;2023-09-19T13:35:15;20.80;99.90
20422;DHT22;10370;53.102;18.034;2023-09-19T13:40:38;20.90;99.90
20422;DHT22;10370;53.102;18.034;2023-09-19T13:46:02;20.70;99.90
20422;DHT22;10370;53.102;18.034;2023-09-19T13:51:26;20.50;99.90
20422;DHT22;10370;53.102;18.034;2023-09-19T13:56:48;20.60;99.90
20422;DHT22;10370;53.102;18.034;2023-09-19T14:02:11;20.90;99.90
20422;DHT22;10370;53.102;18.034;2023-09-19T14:07:36;21.00;99.90
20422;DHT22;10370;53.102;18.034;2023-09-19T14:12:59;20.80;99.90
20422;DHT22;10370;53.102;18.034;2023-09-19T14:18:21;20.50;99.90
20422;DHT22;10370;53.102;18.034;2023-09-19T14:23:44;20.30;99.90
20422;DHT22;10370;53.102;18.034;2023-09-19T14:29:08;20.40;99.90
20422;DHT22;10370;53.102;18.034;2023-09-19T14:34:32;20.60;99.90
20422;DHT22;10370;53.102;18.034;2023-09-19T14:39:55;20.90;99.90
20422;DHT22;10370;53.102;18.034;2023-09-19T14:45:18;20.90;99.90
20422;DHT22;10370;53.102;18.034;2023-09-19T14:50:41;20.90;99.90
20422;DHT22;10370;53.102;18.034;2023-09-19T14:56:04;20.80;99.90
20422;DHT22;10370;53.102;18.034;2023-09-19T15:01:28;20.50;99.90
20422;DHT22;10370;53.102;18.034;2023-09-19T15:06:50;20.40;99.90
20422;DHT22;10370;53.102;18.034;2023-09-19T15:12:17;20.20;99.90
20422;DHT22;10370;53.102;18.034;2023-09-19T15:17:39;20.20;99.90
20422;DHT22;10370;53.102;18.034;2023-09-19T15:23:02;20.10;99.90
20422;DHT22;10370;53.102;18.034;2023-09-19T15:28:25;20.00;99.90
20422;DHT22;10370;53.102;18.034;2023-09-19T15:33:48;19.90;99.90
20422;DHT22;10370;53.102;18.034;2023-09-19T15:39:11;19.80;99.90
20422;DHT22;10370;53.102;18.034;2023-09-19T15:44:34;19.70;99.90
20422;DHT22;10370;53.102;18.034;2023-09-19T15:49:57;19.50;99.90
20422;DHT22;10370;53.102;18.034;2023-09-19T15:55:19;19.40;99.90
20422;DHT22;10370;53.102;18.034;2023-09-19T16:00:42;19.20;99.90
20422;DHT22;10370;53.102;18.034;2023-09-19T16:06:12;19.10;99.90
20422;DHT22;10370;53.102;18.034;2023-09-19T16:11:36;19.10;99.90
20422;DHT22;10370;53.102;18.034;2023-09-19T16:16:59;18.90;99.90
20422;DHT22;10370;53.102;18.034;2023-09-19T16:22:22;18.60;99.90
20422;DHT22;10370;53.102;18.034;2023-09-19T16:27:44;18.50;99.90
20422;DHT22;10370;53.102;18.034;2023-09-19T16:33:07;18.40;99.90
20422;DHT22;10370;53.102;18.034;2023-09-19T16:38:30;18.20;99.90
20422;DHT22;10370;53.102;18.034;2023-09-19T16:43:52;18.20;99.90
20422;DHT22;10370;53.102;18.034;2023-09-19T16:49:15;18.00;99.90
20422;DHT22;10370;53.102;18.034;2023-09-19T16:54:37;17.90;99.90
20422;DHT22;10370;53.102;18.034;2023-09-19T17:00:01;17.70;99.90
20422;DHT22;10370;53.102;18.034;2023-09-19T17:05:25;17.50;99.90
20422;DHT22;10370;53.102;18.034;2023-09-19T17:10:48;17.50;99.90
20422;DHT22;10370;53.102;18.034;2023-09-19T17:16:13;17.40;99.90
20422;DHT22;10370;53.102;18.034;2023-09-19T17:21:37;17.40;99.90
20422;DHT22;10370;53.102;18.034;2023-09-19T17:26:59;17.30;99.90
20422;DHT22;10370;53.102;18.034;2023-09-19T17:32:22;17.20;99.90
20422;DHT22;10370;53.102;18.034;2023-09-19T17:37:45;16.90;99.90
20422;DHT22;10370;53.102;18.034;2023-09-19T17:43:08;16.60;99.90
20422;DHT22;10370;53.102;18.034;2023-09-19T17:48:35;16.40;99.90
20422;DHT22;10370;53.102;18.034;2023-09-19T17:53:58;16.30;99.90
20422;DHT22;10370;53.102;18.034;2023-09-19T17:59:24;16.20;99.90
20422;DHT22;10370;53.102;18.034;2023-09-19T18:04:47;15.90;99.90
20422;DHT22;10370;53.102;18.034;2023-09-19T18:10:09;15.70;99.90
20422;DHT22;10370;53.102;18.034;2023-09-19T18:15:32;15.60;99.90
20422;DHT22;10370;53.102;18.034;2023-09-19T18:21:25;15.40;99.90
20422;DHT22;10370;53.102;18.034;2023-09-19T18:26:49;15.30;99.90
20422;DHT22;10370;53.102;18.034;2023-09-19T18:32:12;15.10;99.90
20422;DHT22;10370;53.102;18.034;2023-09-19T18:37:34;15.00;99.90
20422;DHT22;10370;53.102;18.034;2023-09-19T18:42:57;14.90;99.90
20422;DHT22;10370;53.102;18.034;2023-09-19T18:48:20;14.80;99.90
20422;DHT22;10370;53.102;18.034;2023-09-19T18:53:43;14.70;99.90
20422;DHT22;10370;53.102;18.034;2023-09-19T18:59:14;14.60;99.90
20422;DHT22;10370;53.102;18.034;2023-09-19T19:04:38;14.50;99.90
20422;DHT22;10370;53.102;18.034;2023-09-19T19:10:05;14.40;99.90
20422;DHT22;10370;53.102;18.034;2023-09-19T19:15:33;14.30;99.90
20422;DHT22;10370;53.102;18.034;2023-09-19T19:21:00;14.20;99.90
20422;DHT22;10370;53.102;18.034;2023-09-19T19:26:23;14.10;99.90
20422;DHT22;10370;53.102;18.034;2023-09-19T19:31:46;14.00;99.90
20422;DHT22;10370;53.102;18.034;2023-09-19T19:37:09;13.90;99.90
20422;DHT22;10370;53.102;18.034;2023-09-19T19:42:34;13.80;99.90
20422;DHT22;10370;53.102;18.034;2023-09-19T19:47:57;13.70;99.90
20422;DHT22;10370;53.102;18.034;2023-09-19T19:53:24;13.60;99.90
20422;DHT22;10370;53.102;18.034;2023-09-19T19:58:46;13.40;99.90
20422;DHT22;10370;53.102;18.034;2023-09-19T20:04:10;13.40;99.90
20422;DHT22;10370;53.102;18.034;2023-09-19T20:09:33;13.30;99.90
20422;DHT22;10370;53.102;18.034;2023-09-19T20:14:56;13.20;99.90
20422;DHT22;10370;53.102;18.034;2023-09-19T20:20:19;13.20;99.90
20422;DHT22;10370;53.102;18.034;2023-09-19T20:25:45;13.10;99.90
20422;DHT22;10370;53.102;18.034;2023-09-19T20:30:48;13.00;99.90
20422;DHT22;10370;53.102;18.034;2023-09-19T20:36:11;13.00;99.90
20422;DHT22;10370;53.102;18.034;2023-09-19T20:41:36;12.90;99.90
20422;DHT22;10370;53.102;18.034;2023-09-19T20:46:59;12.70;99.90
20422;DHT22;10370;53.102;18.034;2023-09-19T20:52:22;12.60;99.90
20422;DHT22;10370;53.102;18.034;2023-09-19T20:57:46;12.70;99.90
20422;DHT22;10370;53.102;18.034;2023-09-19T21:03:08;12.70;99.90
20422;DHT22;10370;53.102;18.034;2023-09-19T21:08:36;12.60;99.90
20422;DHT22;10370;53.102;18.034;2023-09-19T21:13:59;12.60;99.90
20422;DHT22;10370;53.102;18.034;2023-09-19T21:19:21;12.50;99.90
20422;DHT22;10370;53.102;18.034;2023-09-19T21:24:47;12.50;99.90
20422;DHT22;10370;53.102;18.034;2023-09-19T21:30:11;12.40;99.90
20422;DHT22;10370;53.102;18.034;2023-09-19T21:35:44;12.40;99.90
20422;DHT22;10370;53.102;18.034;2023-09-19T21:41:08;12.30;99.90
20422;DHT22;10370;53.102;18.034;2023-09-19T21:46:31;12.30;99.90
20422;DHT22;10370;53.102;18.034;2023-09-19T21:51:54;12.10;99.90
20422;DHT22;10370;53.102;18.034;2023-09-19T21:57:16;12.10;99.90
20422;DHT22;10370;53.102;18.034;2023-09-19T22:02:39;11.90;99.90
20422;DHT22;10370;53.102;18.034;2023-09-19T22:08:02;12.00;99.90
20422;DHT22;10370;53.102;18.034;2023-09-19T22:13:26;12.00;99.90
20422;DHT22;10370;53.102;18.034;2023-09-19T22:18:51;11.90;99.90
20422;DHT22;10370;53.102;18.034;2023-09-19T22:24:14;11.80;99.90
20422;DHT22;10370;53.102;18.034;2023-09-19T22:29:44;11.70;99.90
20422;DHT22;10370;53.102;18.034;2023-09-19T22:35:07;11.60;99.90
20422;DHT22;10370;53.102;18.034;2023-09-19T22:40:29;11.70;99.90
20422;DHT22;10370;53.102;18.034;2023-09-19T22:45:53;11.60;99.90
20422;DHT22;10370;53.102;18.034;2023-09-19T22:51:16;11.50;99.90
20422;DHT22;10370;53.102;18.034;2023-09-19T22:56:57;11.50;99.90
20422;DHT22;10370;53.102;18.034;2023-09-19T23:02:45;11.40;99.90
20422;DHT22;10370;53.102;18.034;2023-09-19T23:08:12;11.40;99.90
20422;DHT22;10370;53.102;18.034;2023-09-19T23:13:34;11.40;99.90
20422;DHT22;10370;53.102;18.034;2023-09-19T23:19:02;11.40;99.90
20422;DHT22;10370;53.102;18.034;2023-09-19T23:24:48;11.30;99.90
20422;DHT22;10370;53.102;18.034;2023-09-19T23:30:14;11.40;99.90
20422;DHT22;10370;53.102;18.034;2023-09-19T23:35:40;11.40;99.90
20422;DHT22;10370;53.102;18.034;2023-09-19T23:41:03;11.20;99.90
20422;DHT22;10370;53.102;18.034;2023-09-19T23:46:28;11.20;99.90
20422;DHT22;10370;53.102;18.034;2023-09-19T23:51:55;11.20;99.90
20422;DHT22;10370;53.102;18.034;2023-09-19T23:57:22;11.20;99.90
